createdAt,value
2018-11-25T00:00:27.433Z,49.70
2018-11-25T00:01:27.423Z,50.09
2018-11-25T00:02:27.411Z,38.00
2018-11-25T00:03:27.400Z,46.90
2018-11-25T00:04:27.388Z,47.59
2018-11-25T00:05:27.377Z,50.90
2018-11-25T00:06:27.366Z,49.50
2018-11-25T00:07:34.346Z,51.00
2018-11-25T00:08:51.825Z,56.20
2018-11-25T00:09:51.813Z,51.50
2018-11-25T00:10:51.809Z,50.79
2018-11-25T00:11:51.790Z,48.70
2018-11-25T00:12:51.788Z,50.79
2018-11-25T00:13:51.767Z,49.09
2018-11-25T00:14:51.757Z,48.59
2018-11-25T00:15:51.745Z,49.20
2018-11-25T00:16:51.735Z,54.50
2018-11-25T00:17:51.722Z,46.40
2018-11-25T00:18:51.711Z,59.40
2018-11-25T00:19:51.701Z,51.09
2018-11-25T00:20:51.690Z,47.90
2018-11-25T00:21:51.678Z,50.29
2018-11-25T00:22:51.669Z,45.90
2018-11-25T00:23:51.658Z,50.20
2018-11-25T00:24:51.648Z,51.40
2018-11-25T00:25:51.633Z,50.09
2018-11-25T00:26:51.621Z,47.29
2018-11-25T00:27:51.612Z,46.90
2018-11-25T00:28:51.600Z,47.59
2018-11-25T00:29:51.592Z,50.50
2018-11-25T00:30:51.577Z,53.20
2018-11-25T00:31:51.565Z,54.90
2018-11-25T00:32:51.554Z,51.79
2018-11-25T00:33:51.548Z,47.59
2018-11-25T00:34:51.535Z,53.00
2018-11-25T00:35:51.523Z,51.70
2018-11-25T00:36:51.509Z,48.00
2018-11-25T00:37:51.498Z,50.90
2018-11-25T00:38:51.489Z,52.79
2018-11-25T00:39:51.478Z,48.00
2018-11-25T00:40:51.465Z,55.70
2018-11-25T00:41:51.457Z,50.00
2018-11-25T00:42:51.444Z,47.59
2018-11-25T00:43:51.433Z,54.70
2018-11-25T00:44:51.421Z,49.79
2018-11-25T00:45:51.416Z,49.20
2018-11-25T00:46:51.405Z,49.59
2018-11-25T00:47:51.399Z,52.70
2018-11-25T00:48:51.375Z,46.59
2018-11-25T00:49:51.373Z,45.90
2018-11-25T00:50:51.355Z,47.90
2018-11-25T00:51:51.342Z,48.59
2018-11-25T00:52:51.332Z,41.79
2018-11-25T00:53:51.320Z,53.90
2018-11-25T00:54:51.308Z,45.79
2018-11-25T00:55:51.299Z,46.40
2018-11-25T00:56:51.292Z,46.40
2018-11-25T00:57:51.276Z,52.20
2018-11-25T00:58:51.263Z,48.59
2018-11-25T00:59:51.254Z,56.59
2018-11-25T01:00:51.242Z,59.59
2018-11-25T01:01:51.230Z,53.20
2018-11-25T01:02:51.219Z,54.09
2018-11-25T01:03:51.209Z,60.09
2018-11-25T01:04:51.200Z,57.00
2018-11-25T01:05:51.193Z,53.59
2018-11-25T01:06:51.177Z,58.50
2018-11-25T01:07:51.163Z,57.70
2018-11-25T01:08:51.154Z,65.09
2018-11-25T01:09:51.144Z,62.40
2018-11-25T01:10:51.134Z,63.20
2018-11-25T01:11:51.129Z,57.50
2018-11-25T01:12:51.111Z,42.79
2018-11-25T01:13:51.099Z,45.09
2018-11-25T01:14:51.089Z,48.59
2018-11-25T01:15:51.074Z,43.90
2018-11-25T01:16:51.066Z,41.20
2018-11-25T01:17:51.052Z,42.09
2018-11-25T01:18:51.041Z,42.09
2018-11-25T01:19:51.037Z,42.20
2018-11-25T01:20:51.020Z,39.40
2018-11-25T01:21:51.008Z,47.20
2018-11-25T01:22:50.999Z,46.59
2018-11-25T01:23:50.985Z,42.70
2018-11-25T01:24:50.982Z,38.09
2018-11-25T01:25:50.963Z,36.79
2018-11-25T01:26:50.951Z,38.40
2018-11-25T01:27:50.948Z,42.50
2018-11-25T01:28:50.929Z,42.90
2018-11-25T01:29:50.971Z,44.70
2018-11-25T01:30:50.909Z,44.50
2018-11-25T01:31:50.896Z,42.40
2018-11-25T01:32:50.885Z,45.79
2018-11-25T01:33:50.874Z,40.20
2018-11-25T01:34:50.863Z,49.29
2018-11-25T01:35:50.855Z,42.59
2018-11-25T01:36:50.840Z,42.90
2018-11-25T01:37:50.840Z,43.79
2018-11-25T01:38:50.837Z,43.79
2018-11-25T01:39:50.840Z,38.09
2018-11-25T01:40:50.849Z,41.79
2018-11-25T01:41:50.788Z,43.20
2018-11-25T01:42:50.789Z,43.50
2018-11-25T01:43:50.796Z,45.50
2018-11-25T01:44:50.791Z,48.00
2018-11-25T01:45:50.797Z,50.29
2018-11-25T01:46:50.737Z,51.50
2018-11-25T01:47:50.721Z,48.00
2018-11-25T01:48:50.711Z,45.00
2018-11-25T01:49:50.700Z,49.00
2018-11-25T01:50:50.688Z,48.70
2018-11-25T01:51:50.674Z,48.29
2018-11-25T01:52:50.665Z,53.70
2018-11-25T01:53:50.663Z,44.40
2018-11-25T01:54:50.644Z,42.29
2018-11-25T01:55:50.629Z,45.00
2018-11-25T01:56:50.622Z,46.40
2018-11-25T01:57:50.608Z,44.29
2018-11-25T01:58:50.598Z,45.70
2018-11-25T01:59:50.585Z,43.09
2018-11-25T02:00:50.574Z,46.70
2018-11-25T02:01:50.563Z,47.40
2018-11-25T02:02:50.556Z,43.59
2018-11-25T02:03:50.542Z,45.00
2018-11-25T02:04:50.530Z,51.79
2018-11-25T02:05:50.523Z,50.40
2018-11-25T02:06:50.509Z,52.09
2018-11-25T02:07:50.501Z,47.40
2018-11-25T02:08:50.489Z,51.59
2018-11-25T02:09:50.476Z,51.00
2018-11-25T02:10:50.464Z,45.09
2018-11-25T02:11:50.458Z,48.09
2018-11-25T02:12:50.445Z,46.00
2018-11-25T02:13:50.434Z,48.90
2018-11-25T02:14:50.425Z,51.09
2018-11-25T02:15:50.412Z,44.90
2018-11-25T02:16:50.403Z,52.40
2018-11-25T02:17:50.390Z,53.00
2018-11-25T02:18:50.377Z,55.20
2018-11-25T02:19:50.366Z,49.20
2018-11-25T02:20:50.356Z,46.90
2018-11-25T02:21:50.346Z,43.79
2018-11-25T02:22:50.333Z,45.90
2018-11-25T02:23:50.321Z,51.40
2018-11-25T02:24:50.360Z,49.70
2018-11-25T02:25:50.306Z,51.20
2018-11-25T02:26:50.290Z,53.59
2018-11-25T02:27:50.285Z,46.40
2018-11-25T02:28:50.269Z,48.00
2018-11-25T02:29:50.255Z,40.20
2018-11-25T02:30:50.243Z,43.59
2018-11-25T02:31:50.232Z,48.50
2018-11-25T02:32:50.222Z,50.00
2018-11-25T02:33:50.212Z,47.59
2018-11-25T02:34:50.198Z,45.29
2018-11-25T02:35:50.189Z,41.00
2018-11-25T02:36:50.176Z,42.00
2018-11-25T02:37:50.170Z,45.90
2018-11-25T02:38:50.154Z,39.50
2018-11-25T02:39:50.149Z,50.20
2018-11-25T02:40:50.132Z,46.20
2018-11-25T02:41:50.127Z,41.90
2018-11-25T02:42:50.109Z,40.50
2018-11-25T02:43:50.099Z,38.09
2018-11-25T02:44:50.087Z,42.59
2018-11-25T02:45:50.075Z,50.09
2018-11-25T02:46:50.069Z,46.59
2018-11-25T02:47:50.064Z,45.59
2018-11-25T02:48:50.044Z,48.00
2018-11-25T02:49:50.032Z,46.90
2018-11-25T02:50:50.029Z,46.40
2018-11-25T02:51:50.010Z,39.59
2018-11-25T02:52:49.997Z,45.50
2018-11-25T02:53:49.988Z,44.59
2018-11-25T02:54:49.977Z,37.79
2018-11-25T02:55:49.964Z,53.40
2018-11-25T02:56:49.956Z,44.40
2018-11-25T02:57:49.947Z,50.79
2018-11-25T02:58:49.930Z,40.29
2018-11-25T02:59:49.919Z,40.40
2018-11-25T03:00:49.908Z,43.20
2018-11-25T03:01:49.899Z,38.59
2018-11-25T03:02:49.894Z,36.20
2018-11-25T03:03:49.878Z,36.79
2018-11-25T03:04:49.871Z,35.79
2018-11-25T03:05:49.857Z,41.20
2018-11-25T03:06:49.851Z,37.90
2018-11-25T03:07:49.831Z,36.70
2018-11-25T03:08:49.819Z,37.70
2018-11-25T03:09:49.812Z,39.90
2018-11-25T03:10:49.797Z,42.09
2018-11-25T03:11:49.788Z,39.29
2018-11-25T03:12:49.775Z,43.29
2018-11-25T03:13:49.767Z,42.79
2018-11-25T03:14:49.752Z,39.70
2018-11-25T03:15:49.751Z,40.59
2018-11-25T03:16:49.731Z,36.40
2018-11-25T03:17:49.729Z,42.79
2018-11-25T03:18:49.713Z,39.59
2018-11-25T03:19:49.697Z,42.79
2018-11-25T03:20:49.687Z,41.50
2018-11-25T03:21:49.679Z,45.50
2018-11-25T03:22:49.666Z,43.40
2018-11-25T03:23:49.656Z,37.79
2018-11-25T03:24:49.641Z,41.59
2018-11-25T03:25:49.630Z,41.09
2018-11-25T03:26:49.625Z,42.00
2018-11-25T03:27:49.613Z,38.00
2018-11-25T03:28:49.602Z,36.00
2018-11-25T03:29:49.591Z,43.90
2018-11-25T03:30:49.579Z,39.50
2018-11-25T03:31:49.565Z,43.79
2018-11-25T03:32:49.568Z,44.40
2018-11-25T03:33:49.546Z,36.79
2018-11-25T03:34:49.532Z,44.79
2018-11-25T03:35:49.519Z,43.29
2018-11-25T03:36:49.509Z,43.09
2018-11-25T03:37:49.499Z,42.79
2018-11-25T03:38:49.486Z,41.00
2018-11-25T03:39:49.477Z,45.50
2018-11-25T03:40:49.465Z,39.59
2018-11-25T03:41:49.453Z,39.29
2018-11-25T03:42:49.449Z,47.00
2018-11-25T03:43:49.432Z,42.00
2018-11-25T03:44:49.423Z,40.79
2018-11-25T03:45:49.410Z,40.50
2018-11-25T03:46:49.409Z,41.70
2018-11-25T03:47:49.403Z,37.50
2018-11-25T03:48:49.381Z,34.50
2018-11-25T03:49:49.365Z,40.70
2018-11-25T03:50:49.355Z,44.59
2018-11-25T03:51:49.351Z,39.00
2018-11-25T03:52:49.331Z,40.59
2018-11-25T03:53:49.327Z,38.79
2018-11-25T03:54:49.314Z,39.29
2018-11-25T03:55:49.298Z,37.09
2018-11-25T03:56:49.289Z,38.70
2018-11-25T03:57:49.276Z,39.40
2018-11-25T03:58:49.267Z,34.59
2018-11-25T03:59:49.260Z,38.90
2018-11-25T04:00:49.247Z,39.90
2018-11-25T04:01:49.234Z,42.00
2018-11-25T04:02:49.221Z,35.70
2018-11-25T04:03:49.211Z,35.40
2018-11-25T04:04:49.205Z,37.09
2018-11-25T04:05:49.193Z,35.50
2018-11-25T04:06:49.178Z,38.09
2018-11-25T04:07:49.172Z,36.29
2018-11-25T04:08:49.161Z,37.70
2018-11-25T04:09:49.149Z,46.20
2018-11-25T04:10:49.131Z,44.50
2018-11-25T04:11:49.123Z,36.70
2018-11-25T04:12:49.110Z,39.00
2018-11-25T04:13:49.105Z,37.59
2018-11-25T04:14:49.087Z,37.29
2018-11-25T04:15:49.076Z,38.20
2018-11-25T04:16:49.064Z,45.50
2018-11-25T04:17:49.054Z,37.70
2018-11-25T04:18:49.052Z,38.90
2018-11-25T04:19:49.041Z,37.40
2018-11-25T04:20:49.019Z,37.50
2018-11-25T04:21:49.010Z,37.70
2018-11-25T04:22:49.000Z,40.00
2018-11-25T04:23:48.993Z,39.90
2018-11-25T04:24:48.983Z,42.90
2018-11-25T04:25:48.964Z,46.40
2018-11-25T04:26:48.956Z,44.40
2018-11-25T04:27:48.942Z,42.09
2018-11-25T04:28:48.930Z,36.90
2018-11-25T04:29:48.919Z,40.00
2018-11-25T04:30:48.911Z,41.09
2018-11-25T04:31:48.901Z,35.20
2018-11-25T04:32:48.886Z,44.09
2018-11-25T04:33:48.875Z,37.40
2018-11-25T04:34:48.864Z,40.59
2018-11-25T04:35:48.860Z,41.40
2018-11-25T04:36:48.843Z,38.20
2018-11-25T04:37:48.834Z,42.50
2018-11-25T04:38:48.821Z,35.29
2018-11-25T04:39:48.809Z,41.20
2018-11-25T04:40:48.799Z,36.90
2018-11-25T04:41:48.786Z,39.59
2018-11-25T04:42:48.775Z,34.40
2018-11-25T04:43:48.771Z,38.29
2018-11-25T04:44:48.761Z,37.59
2018-11-25T04:45:48.742Z,32.20
2018-11-25T04:46:48.742Z,38.09
2018-11-25T04:47:48.728Z,42.59
2018-11-25T04:48:48.721Z,33.50
2018-11-25T04:49:48.699Z,36.00
2018-11-25T04:50:48.687Z,36.29
2018-11-25T04:51:48.677Z,40.79
2018-11-25T04:52:48.667Z,32.90
2018-11-25T04:53:48.654Z,36.90
2018-11-25T04:54:48.643Z,38.50
2018-11-25T04:55:48.631Z,36.40
2018-11-25T04:56:48.622Z,39.59
2018-11-25T04:57:48.609Z,39.90
2018-11-25T04:58:48.597Z,47.40
2018-11-25T04:59:48.589Z,36.00
2018-11-25T05:00:48.578Z,44.50
2018-11-25T05:01:48.571Z,37.70
2018-11-25T05:02:48.554Z,36.70
2018-11-25T05:03:48.544Z,40.09
2018-11-25T05:04:48.532Z,38.50
2018-11-25T05:05:48.522Z,42.79
2018-11-25T05:06:48.512Z,37.79
2018-11-25T05:07:48.499Z,43.40
2018-11-25T05:08:48.489Z,38.29
2018-11-25T05:09:48.479Z,37.79
2018-11-25T05:10:48.474Z,38.29
2018-11-25T05:11:48.465Z,40.79
2018-11-25T05:12:48.449Z,38.09
2018-11-25T05:13:48.436Z,37.59
2018-11-25T05:14:48.422Z,34.29
2018-11-25T05:15:48.413Z,34.20
2018-11-25T05:16:48.398Z,39.09
2018-11-25T05:17:48.395Z,39.09
2018-11-25T05:18:48.379Z,41.59
2018-11-25T05:19:48.365Z,40.70
2018-11-25T05:20:48.353Z,38.09
2018-11-25T05:21:48.348Z,35.70
2018-11-25T05:22:48.332Z,40.20
2018-11-25T05:23:48.325Z,40.79
2018-11-25T05:24:48.318Z,46.09
2018-11-25T05:25:48.301Z,39.50
2018-11-25T05:26:48.291Z,33.00
2018-11-25T05:27:48.279Z,35.20
2018-11-25T05:28:48.264Z,41.00
2018-11-25T05:29:48.253Z,31.29
2018-11-25T05:30:48.241Z,38.00
2018-11-25T05:31:48.230Z,36.29
2018-11-25T05:32:48.229Z,35.70
2018-11-25T05:33:48.215Z,36.20
2018-11-25T05:34:48.228Z,36.79
2018-11-25T05:35:48.188Z,34.09
2018-11-25T05:36:48.178Z,37.20
2018-11-25T05:37:48.168Z,36.70
2018-11-25T05:38:48.152Z,37.29
2018-11-25T05:39:48.146Z,35.50
2018-11-25T05:40:48.131Z,37.59
2018-11-25T05:41:48.118Z,35.20
2018-11-25T05:42:48.107Z,35.70
2018-11-25T05:43:48.102Z,36.29
2018-11-25T05:44:48.085Z,32.40
2018-11-25T05:45:48.074Z,37.09
2018-11-25T05:46:48.062Z,37.09
2018-11-25T05:47:48.058Z,39.20
2018-11-25T05:48:48.046Z,37.09
2018-11-25T05:49:48.028Z,38.09
2018-11-25T05:50:48.027Z,35.79
2018-11-25T05:51:48.007Z,39.59
2018-11-25T05:52:47.994Z,32.20
2018-11-25T05:53:47.984Z,35.00
2018-11-25T05:54:47.977Z,33.00
2018-11-25T05:55:47.963Z,37.00
2018-11-25T05:56:47.953Z,33.40
2018-11-25T05:57:47.943Z,33.70
2018-11-25T05:58:47.928Z,37.40
2018-11-25T05:59:47.917Z,39.20
2018-11-25T06:00:47.904Z,36.70
2018-11-25T06:01:47.899Z,32.40
2018-11-25T06:02:47.885Z,32.20
2018-11-25T06:03:47.871Z,35.40
2018-11-25T06:04:47.859Z,34.20
2018-11-25T06:05:47.848Z,33.40
2018-11-25T06:06:47.837Z,34.29
2018-11-25T06:07:47.828Z,35.29
2018-11-25T06:08:47.814Z,32.09
2018-11-25T06:09:47.806Z,38.09
2018-11-25T06:10:47.792Z,32.90
2018-11-25T06:11:47.783Z,32.29
2018-11-25T06:12:47.776Z,35.29
2018-11-25T06:13:47.758Z,37.59
2018-11-25T06:14:47.748Z,32.50
2018-11-25T06:15:47.736Z,37.59
2018-11-25T06:16:47.732Z,32.40
2018-11-25T06:17:47.714Z,28.70
2018-11-25T06:18:47.703Z,33.90
2018-11-25T06:19:47.700Z,34.09
2018-11-25T06:20:47.679Z,32.09
2018-11-25T06:21:47.675Z,29.00
2018-11-25T06:22:47.657Z,29.29
2018-11-25T06:23:47.646Z,31.00
2018-11-25T06:24:47.646Z,34.50
2018-11-25T06:25:47.628Z,34.40
2018-11-25T06:26:47.620Z,36.09
2018-11-25T06:27:47.611Z,34.70
2018-11-25T06:28:47.590Z,37.79
2018-11-25T06:29:47.589Z,33.79
2018-11-25T06:30:47.567Z,41.90
2018-11-25T06:31:47.556Z,30.50
2018-11-25T06:32:47.550Z,30.20
2018-11-25T06:33:47.533Z,37.09
2018-11-25T06:34:47.524Z,30.79
2018-11-25T06:35:47.516Z,34.90
2018-11-25T06:36:47.500Z,33.09
2018-11-25T06:37:47.494Z,33.40
2018-11-25T06:38:47.480Z,32.09
2018-11-25T06:39:47.468Z,35.50
2018-11-25T06:40:47.456Z,32.50
2018-11-25T06:41:47.443Z,36.50
2018-11-25T06:42:47.438Z,33.29
2018-11-25T06:43:47.423Z,30.79
2018-11-25T06:44:47.417Z,30.70
2018-11-25T06:45:47.404Z,32.20
2018-11-25T06:46:47.390Z,31.89
2018-11-25T06:47:47.377Z,35.40
2018-11-25T06:48:54.576Z,38.09
2018-11-25T06:50:12.512Z,29.89
2018-11-25T06:51:11.829Z,31.70
2018-11-25T06:52:11.820Z,39.40
2018-11-25T06:53:11.835Z,34.50
2018-11-25T06:54:11.824Z,35.50
2018-11-25T06:55:11.833Z,28.70
2018-11-25T06:56:11.765Z,34.00
2018-11-25T06:57:11.758Z,33.09
2018-11-25T06:58:11.762Z,34.70
2018-11-25T06:59:11.734Z,37.29
2018-11-25T07:00:11.726Z,31.20
2018-11-25T07:01:11.722Z,33.00
2018-11-25T07:02:11.698Z,31.70
2018-11-25T07:03:11.689Z,39.09
2018-11-25T07:04:11.681Z,30.50
2018-11-25T07:05:11.695Z,38.50
2018-11-25T07:06:11.656Z,35.20
2018-11-25T07:07:11.641Z,36.09
2018-11-25T07:08:11.630Z,33.50
2018-11-25T07:09:11.621Z,41.00
2018-11-25T07:10:11.615Z,34.40
2018-11-25T07:11:11.597Z,38.29
2018-11-25T07:12:11.588Z,35.20
2018-11-25T07:13:11.577Z,32.50
2018-11-25T07:14:11.568Z,38.70
2018-11-25T07:15:11.558Z,39.90
2018-11-25T07:16:11.544Z,36.29
2018-11-25T07:17:11.531Z,41.59
2018-11-25T07:18:11.519Z,41.40
2018-11-25T07:19:11.508Z,39.40
2018-11-25T07:20:11.504Z,38.79
2018-11-25T07:21:11.487Z,43.79
2018-11-25T07:22:11.475Z,42.29
2018-11-25T07:23:11.462Z,38.90
2018-11-25T07:24:11.457Z,36.40
2018-11-25T07:25:11.447Z,38.90
2018-11-25T07:26:11.429Z,43.59
2018-11-25T07:27:11.420Z,42.20
2018-11-25T07:28:18.412Z,38.79
2018-11-25T07:29:35.881Z,50.00
2018-11-25T07:30:35.869Z,43.59
2018-11-25T07:31:35.851Z,42.40
2018-11-25T07:32:35.845Z,42.90
2018-11-25T07:33:35.829Z,40.59
2018-11-25T07:34:35.817Z,47.20
2018-11-25T07:35:35.806Z,39.79
2018-11-25T07:36:35.799Z,43.59
2018-11-25T07:37:35.784Z,38.20
2018-11-25T07:38:35.777Z,42.70
2018-11-25T07:39:35.764Z,41.79
2018-11-25T07:40:35.751Z,40.40
2018-11-25T07:41:35.740Z,35.90
2018-11-25T07:42:35.732Z,39.40
2018-11-25T07:43:35.717Z,41.40
2018-11-25T07:44:35.704Z,39.90
2018-11-25T07:45:35.694Z,52.79
2018-11-25T07:46:35.689Z,45.00
2018-11-25T07:47:35.673Z,43.20
2018-11-25T07:48:35.665Z,40.70
2018-11-25T07:49:35.648Z,52.40
2018-11-25T07:50:35.639Z,46.29
2018-11-25T07:51:35.633Z,46.59
2018-11-25T07:52:35.614Z,118.09
2018-11-25T07:53:35.607Z,42.40
2018-11-25T07:54:35.592Z,40.29
2018-11-25T07:55:35.582Z,44.90
2018-11-25T07:56:35.569Z,49.40
2018-11-25T07:57:35.563Z,102.00
2018-11-25T07:58:35.550Z,108.69
2018-11-25T07:59:35.547Z,56.50
2018-11-25T08:00:35.524Z,51.79
2018-11-25T08:01:35.515Z,70.40
2018-11-25T08:02:41.362Z,49.20
2018-11-25T08:03:59.973Z,38.09
2018-11-25T08:04:59.958Z,37.70
2018-11-25T08:05:59.949Z,39.90
2018-11-25T08:06:59.936Z,52.29
2018-11-25T08:07:59.925Z,49.90
2018-11-25T08:08:59.913Z,68.80
2018-11-25T08:09:59.901Z,78.19
2018-11-25T08:10:59.905Z,49.70
2018-11-25T08:11:59.880Z,43.59
2018-11-25T08:12:59.881Z,44.20
2018-11-25T08:13:59.875Z,39.79
2018-11-25T08:14:59.895Z,46.40
2018-11-25T08:15:59.832Z,42.90
2018-11-25T08:16:59.822Z,44.79
2018-11-25T08:17:59.814Z,41.79
2018-11-25T08:18:59.800Z,54.29
2018-11-25T08:19:59.786Z,40.90
2018-11-25T08:20:59.775Z,60.40
2018-11-25T08:21:59.765Z,53.29
2018-11-25T08:22:59.758Z,50.09
2018-11-25T08:23:59.741Z,46.20
2018-11-25T08:24:59.735Z,47.50
2018-11-25T08:25:59.725Z,50.00
2018-11-25T08:26:59.709Z,48.20
2018-11-25T08:27:59.696Z,46.70
2018-11-25T08:28:59.699Z,40.50
2018-11-25T08:29:59.679Z,39.70
2018-11-25T08:30:59.662Z,39.29
2018-11-25T08:31:59.656Z,45.20
2018-11-25T08:32:59.641Z,45.40
2018-11-25T08:33:59.627Z,42.70
2018-11-25T08:34:59.615Z,41.09
2018-11-25T08:35:59.606Z,40.50
2018-11-25T08:36:59.600Z,37.79
2018-11-25T08:37:59.583Z,42.00
2018-11-25T08:38:59.570Z,43.00
2018-11-25T08:39:59.560Z,40.00
2018-11-25T08:40:59.546Z,40.79
2018-11-25T08:41:59.535Z,42.00
2018-11-25T08:42:59.530Z,42.40
2018-11-25T08:43:59.522Z,43.09
2018-11-25T08:44:59.502Z,37.00
2018-11-25T08:45:59.489Z,35.79
2018-11-25T08:46:59.482Z,49.09
2018-11-25T08:47:59.467Z,37.40
2018-11-25T08:48:59.455Z,38.50
2018-11-25T08:49:59.449Z,46.90
2018-11-25T08:50:59.438Z,41.50
2018-11-25T08:51:59.424Z,44.50
2018-11-25T08:52:59.410Z,38.00
2018-11-25T08:53:59.397Z,45.20
2018-11-25T08:54:59.387Z,40.90
2018-11-25T08:55:59.376Z,43.59
2018-11-25T08:56:59.369Z,43.40
2018-11-25T08:57:59.352Z,41.50
2018-11-25T08:58:59.341Z,42.00
2018-11-25T08:59:59.332Z,41.59
2018-11-25T09:00:59.318Z,38.70
2018-11-25T09:01:59.307Z,40.00
2018-11-25T09:02:59.296Z,45.79
2018-11-25T09:03:59.283Z,43.20
2018-11-25T09:04:59.272Z,40.40
2018-11-25T09:05:59.260Z,47.40
2018-11-25T09:06:59.251Z,46.40
2018-11-25T09:07:59.243Z,47.09
2018-11-25T09:08:59.226Z,40.40
2018-11-25T09:09:59.222Z,46.29
2018-11-25T09:10:59.204Z,44.09
2018-11-25T09:11:59.194Z,49.20
2018-11-25T09:12:59.188Z,48.70
2018-11-25T09:13:59.176Z,39.40
2018-11-25T09:14:59.163Z,38.79
2018-11-25T09:15:59.148Z,39.79
2018-11-25T09:16:59.141Z,45.20
2018-11-25T09:17:59.129Z,40.59
2018-11-25T09:18:59.113Z,41.00
2018-11-25T09:19:59.107Z,41.79
2018-11-25T09:20:59.094Z,42.70
2018-11-25T09:21:59.872Z,41.09
2018-11-25T09:22:59.072Z,36.70
2018-11-25T09:23:59.062Z,35.00
2018-11-25T09:24:59.047Z,31.10
2018-11-25T09:25:59.034Z,40.50
2018-11-25T09:26:59.034Z,40.40
2018-11-25T09:27:59.012Z,34.90
2018-11-25T09:28:59.003Z,30.50
2018-11-25T09:29:58.996Z,36.40
2018-11-25T09:30:58.982Z,38.09
2018-11-25T09:31:58.969Z,34.59
2018-11-25T09:32:58.957Z,32.40
2018-11-25T09:33:58.951Z,31.70
2018-11-25T09:34:58.940Z,35.50
2018-11-25T09:35:58.927Z,48.50
2018-11-25T09:36:58.921Z,46.20
2018-11-25T09:37:58.903Z,41.40
2018-11-25T09:38:58.892Z,42.90
2018-11-25T09:39:58.884Z,61.00
2018-11-25T09:40:59.332Z,42.20
2018-11-25T09:41:58.858Z,46.59
2018-11-25T09:42:58.851Z,33.59
2018-11-25T09:43:58.840Z,33.29
2018-11-25T09:44:58.864Z,34.50
2018-11-25T09:45:58.824Z,37.29
2018-11-25T09:46:58.807Z,36.59
2018-11-25T09:47:58.794Z,33.90
2018-11-25T09:48:58.783Z,37.29
2018-11-25T09:49:58.776Z,36.40
2018-11-25T09:50:58.758Z,36.50
2018-11-25T09:51:58.754Z,34.29
2018-11-25T09:52:58.739Z,41.70
2018-11-25T09:53:58.732Z,35.79
2018-11-25T09:54:58.716Z,39.79
2018-11-25T09:55:58.706Z,34.20
2018-11-25T09:56:58.692Z,30.50
2018-11-25T09:57:58.692Z,38.40
2018-11-25T09:58:58.671Z,34.09
2018-11-25T09:59:58.663Z,32.09
2018-11-25T10:00:58.649Z,37.09
2018-11-25T10:01:58.640Z,34.90
2018-11-25T10:02:58.631Z,35.00
2018-11-25T10:03:58.617Z,35.59
2018-11-25T10:04:58.603Z,32.40
2018-11-25T10:05:58.599Z,31.39
2018-11-25T10:06:58.581Z,33.50
2018-11-25T10:07:58.572Z,32.59
2018-11-25T10:08:58.562Z,34.09
2018-11-25T10:09:58.554Z,34.50
2018-11-25T10:10:58.540Z,35.70
2018-11-25T10:11:58.531Z,32.79
2018-11-25T10:12:58.521Z,36.20
2018-11-25T10:13:58.505Z,44.59
2018-11-25T10:14:58.497Z,35.59
2018-11-25T10:15:58.481Z,35.90
2018-11-25T10:16:58.471Z,30.20
2018-11-25T10:17:59.817Z,32.09
2018-11-25T10:18:58.448Z,35.00
2018-11-25T10:19:58.438Z,30.20
2018-11-25T10:20:58.425Z,34.70
2018-11-25T10:21:58.415Z,30.39
2018-11-25T10:22:58.405Z,31.10
2018-11-25T10:23:58.391Z,36.59
2018-11-25T10:24:58.381Z,31.50
2018-11-25T10:25:58.374Z,30.00
2018-11-25T10:26:58.358Z,35.90
2018-11-25T10:27:58.352Z,36.59
2018-11-25T10:28:58.335Z,36.50
2018-11-25T10:29:58.325Z,31.60
2018-11-25T10:30:58.315Z,32.29
2018-11-25T10:31:58.302Z,35.20
2018-11-25T10:32:58.295Z,33.50
2018-11-25T10:33:58.280Z,34.40
2018-11-25T10:34:58.269Z,34.00
2018-11-25T10:35:58.262Z,28.70
2018-11-25T10:36:58.246Z,32.59
2018-11-25T10:37:58.238Z,35.00
2018-11-25T10:38:58.225Z,38.00
2018-11-25T10:39:58.215Z,34.79
2018-11-25T10:40:58.204Z,33.29
2018-11-25T10:41:58.193Z,35.50
2018-11-25T10:42:58.193Z,43.29
2018-11-25T10:43:58.172Z,33.59
2018-11-25T10:44:58.159Z,34.90
2018-11-25T10:45:58.147Z,36.59
2018-11-25T10:46:58.136Z,39.59
2018-11-25T10:47:58.125Z,33.09
2018-11-25T10:48:58.113Z,29.39
2018-11-25T10:49:58.104Z,34.79
2018-11-25T10:50:58.092Z,32.50
2018-11-25T10:51:58.093Z,34.90
2018-11-25T10:52:58.070Z,31.29
2018-11-25T10:53:58.067Z,34.00
2018-11-25T10:54:58.048Z,35.20
2018-11-25T10:55:58.045Z,34.90
2018-11-25T10:56:58.030Z,34.40
2018-11-25T10:57:58.015Z,30.00
2018-11-25T10:58:58.011Z,37.50
2018-11-25T10:59:57.999Z,36.00
2018-11-25T11:00:57.985Z,35.59
2018-11-25T11:01:57.982Z,34.40
2018-11-25T11:02:57.967Z,36.20
2018-11-25T11:03:57.957Z,33.90
2018-11-25T11:04:57.939Z,36.70
2018-11-25T11:05:57.927Z,36.40
2018-11-25T11:06:57.918Z,34.40
2018-11-25T11:07:57.905Z,33.29
2018-11-25T11:08:57.903Z,37.50
2018-11-25T11:09:57.891Z,35.20
2018-11-25T11:10:57.879Z,39.79
2018-11-25T11:11:57.861Z,33.50
2018-11-25T11:12:58.833Z,39.09
2018-11-25T11:13:57.843Z,35.90
2018-11-25T11:14:57.837Z,40.00
2018-11-25T11:15:57.817Z,32.09
2018-11-25T11:16:57.807Z,35.79
2018-11-25T11:17:57.795Z,36.40
2018-11-25T11:18:57.783Z,33.29
2018-11-25T11:19:57.778Z,42.20
2018-11-25T11:20:57.777Z,47.00
2018-11-25T11:21:57.787Z,44.90
2018-11-25T11:22:57.788Z,44.79
2018-11-25T11:23:57.732Z,31.79
2018-11-25T11:24:57.730Z,36.00
2018-11-25T11:25:57.740Z,34.20
2018-11-25T11:26:57.736Z,32.70
2018-11-25T11:27:57.684Z,29.39
2018-11-25T11:28:57.675Z,31.79
2018-11-25T11:29:57.661Z,33.70
2018-11-25T11:30:57.653Z,33.50
2018-11-25T11:31:57.645Z,31.29
2018-11-25T11:32:57.629Z,35.90
2018-11-25T11:33:57.618Z,36.00
2018-11-25T11:34:57.615Z,31.79
2018-11-25T11:35:57.597Z,34.20
2018-11-25T11:36:57.586Z,35.09
2018-11-25T11:37:57.579Z,33.90
2018-11-25T11:38:57.567Z,30.10
2018-11-25T11:39:57.556Z,35.90
2018-11-25T11:40:57.541Z,35.09
2018-11-25T11:41:57.535Z,39.79
2018-11-25T11:42:57.525Z,39.70
2018-11-25T11:43:57.508Z,37.90
2018-11-25T11:44:57.501Z,33.29
2018-11-25T11:45:57.492Z,37.79
2018-11-25T11:46:57.478Z,51.90
2018-11-25T11:47:57.466Z,33.70
2018-11-25T11:48:57.458Z,37.79
2018-11-25T11:49:57.446Z,33.29
2018-11-25T11:50:57.437Z,28.39
2018-11-25T11:51:57.423Z,34.20
2018-11-25T11:52:57.410Z,31.70
2018-11-25T11:53:57.399Z,38.59
2018-11-25T11:54:57.389Z,40.00
2018-11-25T11:55:57.385Z,33.00
2018-11-25T11:56:57.366Z,32.70
2018-11-25T11:57:57.354Z,29.60
2018-11-25T11:58:57.351Z,30.60
2018-11-25T11:59:57.337Z,32.90
2018-11-25T12:00:57.362Z,36.90
2018-11-25T12:01:57.324Z,31.60
2018-11-25T12:02:57.302Z,29.60
2018-11-25T12:03:57.292Z,26.39
2018-11-25T12:04:57.277Z,33.00
2018-11-25T12:05:57.266Z,35.20
2018-11-25T12:06:57.261Z,31.39
2018-11-25T12:07:57.252Z,33.50
2018-11-25T12:08:57.235Z,47.40
2018-11-25T12:09:57.223Z,47.20
2018-11-25T12:10:57.214Z,32.00
2018-11-25T12:11:57.202Z,36.79
2018-11-25T12:12:57.196Z,33.20
2018-11-25T12:13:57.183Z,31.10
2018-11-25T12:14:57.170Z,34.40
2018-11-25T12:15:57.158Z,32.20
2018-11-25T12:16:57.146Z,35.70
2018-11-25T12:17:57.135Z,31.60
2018-11-25T12:18:57.123Z,36.20
2018-11-25T12:19:57.114Z,34.20
2018-11-25T12:20:57.101Z,32.90
2018-11-25T12:21:58.354Z,34.70
2018-11-25T12:22:57.079Z,34.50
2018-11-25T12:23:57.069Z,31.70
2018-11-25T12:24:57.066Z,32.09
2018-11-25T12:25:57.049Z,27.29
2018-11-25T12:26:57.040Z,33.79
2018-11-25T12:27:57.077Z,27.20
2018-11-25T12:28:57.013Z,39.50
2018-11-25T12:29:57.003Z,33.29
2018-11-25T12:30:56.991Z,31.50
2018-11-25T12:31:56.983Z,31.89
2018-11-25T12:32:57.037Z,35.40
2018-11-25T12:33:56.967Z,31.70
2018-11-25T12:34:56.971Z,29.79
2018-11-25T12:35:56.936Z,36.40
2018-11-25T12:36:56.924Z,29.10
2018-11-25T12:37:56.915Z,29.29
2018-11-25T12:38:56.902Z,28.79
2018-11-25T12:39:56.891Z,32.09
2018-11-25T12:40:56.880Z,31.79
2018-11-25T12:41:56.872Z,28.50
2018-11-25T12:42:56.860Z,33.29
2018-11-25T12:43:56.848Z,29.79
2018-11-25T12:44:56.844Z,34.79
2018-11-25T12:45:56.825Z,32.79
2018-11-25T12:46:56.819Z,35.90
2018-11-25T12:47:56.812Z,32.59
2018-11-25T12:48:56.795Z,31.70
2018-11-25T12:49:56.783Z,27.00
2018-11-25T12:50:56.775Z,35.59
2018-11-25T12:51:56.760Z,32.79
2018-11-25T12:52:56.758Z,32.40
2018-11-25T12:53:56.742Z,34.09